Time;durP1;ratioP1;P1;durP2;ratioP2;P2;SDS_P1;SDS_P2;PMS_P1;PMS_P2;Temp;Humidity;BMP_temperature;BMP_pressure;BME280_temperature;BME280_humidity;BME280_pressure;Samples;Min_cycle;Max_cycle;Signal;HPM_P1;HPM_P2
2022/10/12 00:00:33;;;;;;;26.43;22.03;;;;;;;12.84;100.00;93406.78;5069815;28;20185;-76
2022/10/12 00:02:58;;;;;;;30.37;22.30;;;;;;;12.88;100.00;93405.19;5069560;28;20233;-76
2022/10/12 00:05:24;;;;;;;29.87;22.07;;;;;;;12.70;100.00;93400.59;5069052;28;20228;-76
2022/10/12 00:07:49;;;;;;;30.53;23.20;;;;;;;12.82;100.00;93408.88;5069377;28;20228;-76
2022/10/12 00:10:16;;;;;;;34.17;24.60;;;;;;;12.95;100.00;93413.50;5070096;28;20189;-76
2022/10/12 00:12:41;;;;;;;34.20;24.30;;;;;;;12.80;100.00;93405.75;5069485;28;20188;-76
2022/10/12 00:15:07;;;;;;;30.27;23.47;;;;;;;12.62;100.00;93406.41;5070079;28;20193;-76
2022/10/12 00:17:32;;;;;;;29.67;23.27;;;;;;;12.67;100.00;93395.88;5068692;28;20782;-76
2022/10/12 00:19:58;;;;;;;36.63;23.10;;;;;;;12.67;100.00;93401.09;5068664;28;20228;-75
2022/10/12 00:22:23;;;;;;;33.33;24.60;;;;;;;12.74;100.00;93393.75;5069322;28;20181;-76
2022/10/12 00:24:48;;;;;;;32.80;24.43;;;;;;;12.68;100.00;93379.88;5069115;28;20221;-76
2022/10/12 00:27:14;;;;;;;33.70;24.30;;;;;;;12.63;100.00;93393.03;5069533;28;20189;-76
2022/10/12 00:29:39;;;;;;;36.03;25.57;;;;;;;12.51;100.00;93365.59;5069243;28;20292;-76
2022/10/12 00:32:04;;;;;;;37.10;26.60;;;;;;;12.64;100.00;93375.44;5068432;28;20185;-76
2022/10/12 00:34:30;;;;;;;34.73;24.37;;;;;;;12.75;100.00;93388.22;5069528;28;20232;-75
2022/10/12 00:36:55;;;;;;;37.70;23.63;;;;;;;12.75;100.00;93387.44;5070013;28;20181;-76
2022/10/12 00:39:21;;;;;;;37.60;26.67;;;;;;;12.50;100.00;93370.03;5068916;28;20232;-76
2022/10/12 00:41:46;;;;;;;38.17;27.80;;;;;;;12.42;100.00;93339.19;5069401;28;20193;-76
2022/10/12 00:44:39;;;;;;;39.23;26.80;;;;;;;12.69;100.00;93399.00;5068747;28;20281;-76
2022/10/12 00:47:12;;;;;;;35.93;27.20;;;;;;;12.73;100.00;93394.81;5068745;28;20186;-76
2022/10/12 00:49:38;;;;;;;41.83;27.67;;;;;;;12.55;100.00;93390.19;5067854;28;20233;-75
2022/10/12 00:52:07;;;;;;;37.70;25.03;;;;;;;12.45;100.00;93398.88;5069312;28;20252;-76
2022/10/12 00:54:40;;;;;;;41.23;27.23;;;;;;;12.61;100.00;93395.13;5068545;28;20244;-76
2022/10/12 00:57:08;;;;;;;34.53;27.07;;;;;;;12.52;100.00;93396.75;5069205;28;20224;-75
2022/10/12 00:59:41;;;;;;;38.40;26.83;;;;;;;12.14;100.00;93344.34;5068870;28;21091;-76
2022/10/12 01:02:07;;;;;;;37.27;26.63;;;;;;;12.31;100.00;93391.91;5069471;28;20201;-75
2022/10/12 01:04:32;;;;;;;37.10;26.10;;;;;;;12.30;100.00;93369.38;5068674;28;20233;-76
2022/10/12 01:06:59;;;;;;;31.30;24.23;;;;;;;12.51;100.00;93386.56;5069696;28;20191;-72
2022/10/12 01:09:26;;;;;;;32.53;24.50;;;;;;;12.58;100.00;93387.00;5068280;28;20209;-73
2022/10/12 01:11:51;;;;;;;38.30;25.27;;;;;;;12.62;100.00;93391.44;5067907;28;20204;-73
2022/10/12 01:14:17;;;;;;;35.93;25.67;;;;;;;12.59;100.00;93380.75;5067400;28;20804;-73
2022/10/12 01:16:53;;;;;;;32.73;25.47;;;;;;;12.50;100.00;93382.34;5069098;28;20193;-73
2022/10/12 01:19:57;;;;;;;34.30;24.57;;;;;;;12.23;100.00;93346.09;5067945;28;20221;-73
2022/10/12 01:22:22;;;;;;;36.53;25.73;;;;;;;12.48;100.00;93393.09;5054618;28;20219;-73
2022/10/12 01:24:53;;;;;;;34.97;26.37;;;;;;;12.49;100.00;93388.66;5068786;28;20270;-73
2022/10/12 01:27:54;;;;;;;38.07;25.97;;;;;;;12.67;100.00;93390.63;5068389;28;20182;-73
2022/10/12 01:30:33;;;;;;;35.20;25.57;;;;;;;12.20;100.00;93327.56;5047565;28;20217;-73
2022/10/12 01:33:10;;;;;;;33.27;24.77;;;;;;;12.19;100.00;93380.94;5067362;28;20285;-73
2022/10/12 01:35:55;;;;;;;35.30;25.00;;;;;;;12.55;100.00;93379.69;5052192;28;21674;-73
2022/10/12 01:38:49;;;;;;;42.43;25.13;;;;;;;12.59;100.00;93385.97;5050696;28;20221;-73
2022/10/12 01:41:22;;;;;;;25.27;21.37;;;;;;;12.41;100.00;93391.81;5052200;28;20178;-73
2022/10/12 01:43:50;;;;;;;27.33;22.00;;;;;;;11.94;100.00;93368.75;5062719;28;20282;-73
2022/10/12 01:46:15;;;;;;;26.50;21.03;;;;;;;12.03;100.00;93385.44;5072606;28;20182;-73
2022/10/12 01:48:43;;;;;;;28.57;22.33;;;;;;;12.39;100.00;93384.25;5072255;28;20264;-73
2022/10/12 01:51:14;;;;;;;29.67;22.20;;;;;;;12.43;100.00;93390.53;5071097;28;20689;-73
2022/10/12 01:53:57;;;;;;;29.53;21.63;;;;;;;12.45;100.00;93388.41;5070381;28;20255;-73
2022/10/12 01:56:36;;;;;;;25.77;20.27;;;;;;;12.44;100.00;93388.66;5072470;28;20192;-73
2022/10/12 01:59:13;;;;;;;29.47;20.87;;;;;;;12.57;100.00;93390.69;5071296;28;20229;-73
2022/10/12 02:01:47;;;;;;;27.27;20.07;;;;;;;12.51;100.00;93394.41;5071697;28;20213;-73
2022/10/12 02:04:35;;;;;;;29.57;20.80;;;;;;;12.45;100.00;93387.63;5070321;28;20333;-73
2022/10/12 02:07:10;;;;;;;23.07;20.00;;;;;;;12.65;100.00;93395.38;5069235;28;20188;-73
2022/10/12 02:09:37;;;;;;;24.43;19.83;;;;;;;12.68;100.00;93397.44;5071617;28;20288;-73
2022/10/12 02:12:09;;;;;;;21.90;19.53;;;;;;;12.44;100.00;93401.75;5070842;28;20208;-73
2022/10/12 02:14:44;;;;;;;23.83;20.73;;;;;;;12.38;100.00;93387.94;5071143;28;20229;-73
2022/10/12 02:17:13;;;;;;;22.17;18.47;;;;;;;12.45;100.00;93398.88;5093390;28;20205;-73
2022/10/12 02:19:44;;;;;;;21.80;19.50;;;;;;;12.44;100.00;93410.41;5071121;28;20229;-73
2022/10/12 02:22:11;;;;;;;23.53;20.57;;;;;;;12.49;100.00;93399.13;5070952;28;20185;-72
2022/10/12 02:24:39;;;;;;;23.70;19.30;;;;;;;12.45;100.00;93403.34;5071417;28;20241;-73
2022/10/12 02:27:07;;;;;;;23.23;20.17;;;;;;;12.32;100.00;93417.00;5069482;28;20198;-73
2022/10/12 02:29:37;;;;;;;23.20;19.03;;;;;;;12.16;100.00;93379.66;5070073;28;20308;-73
2022/10/12 02:32:25;;;;;;;25.53;20.00;;;;;;;12.44;100.00;93417.47;5070912;28;20182;-73
2022/10/12 02:34:56;;;;;;;21.60;18.13;;;;;;;12.45;100.00;93405.97;5071324;28;20263;-73
2022/10/12 02:37:37;;;;;;;27.50;19.97;;;;;;;12.59;100.00;93420.03;5072127;28;20241;-73
2022/10/12 02:40:11;;;;;;;29.93;19.80;;;;;;;12.61;100.00;93425.75;5070643;28;20215;-73
2022/10/12 02:42:41;;;;;;;25.00;19.73;;;;;;;12.46;100.00;93403.06;5070612;28;20230;-74
2022/10/12 02:45:09;;;;;;;22.83;20.37;;;;;;;12.49;100.00;93393.88;5041740;28;20209;-73
2022/10/12 02:47:36;;;;;;;24.90;20.03;;;;;;;12.68;100.00;93413.94;5042312;28;20230;-73
2022/10/12 02:50:02;;;;;;;25.87;21.50;;;;;;;12.66;100.00;93412.66;5070925;28;20198;-74
2022/10/12 02:52:29;;;;;;;28.13;22.53;;;;;;;12.54;100.00;93418.22;5070818;28;20182;-73
2022/10/12 02:54:55;;;;;;;29.07;20.60;;;;;;;12.68;100.00;93415.78;5050423;28;20261;-73
2022/10/12 02:57:20;;;;;;;26.23;20.47;;;;;;;12.69;100.00;93414.72;5051082;28;20178;-73
2022/10/12 02:59:45;;;;;;;27.97;20.00;;;;;;;12.53;100.00;93400.94;5042272;28;20229;-73
2022/10/12 03:02:11;;;;;;;26.73;20.83;;;;;;;12.47;100.00;93401.22;5043900;28;20205;-73
2022/10/12 03:04:36;;;;;;;24.10;20.07;;;;;;;12.55;100.00;93408.50;5059555;28;20249;-73
2022/10/12 03:07:03;;;;;;;28.00;22.97;;;;;;;12.44;100.00;93407.78;5062044;28;20203;-73
2022/10/12 03:09:28;;;;;;;25.63;20.40;;;;;;;12.44;100.00;93413.03;5069894;28;20254;-73
2022/10/12 03:11:53;;;;;;;26.97;21.63;;;;;;;12.42;100.00;93414.38;5070780;28;20189;-73
2022/10/12 03:14:20;;;;;;;25.63;19.73;;;;;;;12.39;100.00;93414.91;5056057;28;20233;-73
2022/10/12 03:16:47;;;;;;;25.87;21.17;;;;;;;12.35;100.00;93409.41;5050992;28;20213;-73
2022/10/12 03:19:13;;;;;;;23.67;20.40;;;;;;;12.39;100.00;93407.06;5049929;28;20221;-73
2022/10/12 03:21:38;;;;;;;25.30;20.30;;;;;;;12.41;100.00;93413.56;5049715;28;20249;-73
2022/10/12 03:24:04;;;;;;;29.97;22.13;;;;;;;11.96;100.00;93342.31;5063221;28;20217;-73
2022/10/12 03:26:29;;;;;;;29.37;22.00;;;;;;;12.33;100.00;93415.94;5070120;28;20189;-72
2022/10/12 03:28:54;;;;;;;26.90;20.33;;;;;;;12.39;100.00;93410.44;5068898;28;20213;-73
2022/10/12 03:31:20;;;;;;;32.10;21.73;;;;;;;12.58;100.00;93413.22;5071045;28;20189;-73
2022/10/12 03:33:45;;;;;;;25.03;21.17;;;;;;;12.67;100.00;93412.38;5070512;28;20221;-74
2022/10/12 03:36:10;;;;;;;25.07;20.53;;;;;;;12.57;100.00;93403.78;5070869;28;20216;-74
2022/10/12 03:38:36;;;;;;;27.57;20.83;;;;;;;12.48;100.00;93402.81;5070933;28;20244;-72
2022/10/12 03:41:01;;;;;;;25.47;20.43;;;;;;;12.62;100.00;93415.00;5070748;28;20178;-73
2022/10/12 03:43:27;;;;;;;30.67;22.37;;;;;;;12.68;100.00;93402.69;5069567;28;20241;-74
2022/10/12 03:45:53;;;;;;;27.77;20.67;;;;;;;12.79;100.00;93415.44;5070815;28;20296;-74
2022/10/12 03:48:18;;;;;;;26.20;21.50;;;;;;;12.79;100.00;93414.69;5069951;28;20221;-74
2022/10/12 03:50:49;;;;;;;25.77;20.47;;;;;;;12.73;100.00;93415.75;5069897;28;20296;-74
2022/10/12 03:53:14;;;;;;;30.13;21.13;;;;;;;12.63;100.00;93415.81;5069279;28;20229;-75
2022/10/12 03:55:40;;;;;;;24.20;20.60;;;;;;;12.34;100.00;93397.34;5068478;28;20215;-75
2022/10/12 03:58:05;;;;;;;25.07;21.67;;;;;;;12.27;100.00;93386.41;5066687;28;20692;-75
2022/10/12 04:00:31;;;;;;;25.10;20.43;;;;;;;12.29;100.00;93394.00;5068541;28;20185;-76
2022/10/12 04:02:56;;;;;;;24.97;20.33;;;;;;;12.31;100.00;93397.13;5068726;28;20243;-74
2022/10/12 04:05:22;;;;;;;24.77;20.03;;;;;;;12.49;100.00;93404.34;5069774;28;20268;-75
2022/10/12 04:07:47;;;;;;;27.60;20.30;;;;;;;12.52;100.00;93414.28;5069300;28;20252;-74
2022/10/12 04:10:13;;;;;;;25.33;19.13;;;;;;;12.52;100.00;93409.84;5068922;28;20201;-76
2022/10/12 04:12:38;;;;;;;24.50;19.33;;;;;;;12.39;100.00;93404.44;5069220;28;20186;-75
2022/10/12 04:15:04;;;;;;;25.23;20.13;;;;;;;12.52;100.00;93411.69;5069086;28;20185;-75
2022/10/12 04:17:29;;;;;;;25.47;20.23;;;;;;;12.61;100.00;93396.94;5068672;28;20193;-73
2022/10/12 04:19:55;;;;;;;22.40;19.03;;;;;;;12.58;100.00;93413.22;5068717;28;20229;-70
2022/10/12 04:22:20;;;;;;;21.50;19.13;;;;;;;12.67;100.00;93422.06;5068919;28;20193;-73
2022/10/12 04:24:45;;;;;;;24.20;18.97;;;;;;;12.63;100.00;93426.28;5068194;28;20255;-70
2022/10/12 04:27:11;;;;;;;21.30;18.43;;;;;;;12.58;100.00;93415.84;5069193;28;20198;-72
2022/10/12 04:29:36;;;;;;;23.67;19.17;;;;;;;12.46;100.00;93420.63;5067300;28;21267;-77
2022/10/12 04:32:02;;;;;;;22.97;18.90;;;;;;;12.46;100.00;93425.84;5068243;28;20197;-74
2022/10/12 04:34:27;;;;;;;21.43;17.83;;;;;;;12.52;100.00;93430.00;5067969;28;20225;-75
2022/10/12 04:36:53;;;;;;;22.43;19.43;;;;;;;12.60;100.00;93437.31;5068563;28;20192;-75
2022/10/12 04:39:18;;;;;;;20.60;18.47;;;;;;;12.61;100.00;93436.25;5068624;28;20289;-75
2022/10/12 04:41:44;;;;;;;25.17;18.80;;;;;;;12.50;100.00;93411.16;5067686;28;20193;-77
2022/10/12 04:44:09;;;;;;;19.93;17.53;;;;;;;12.51;100.00;93429.22;5067787;28;20251;-76
2022/10/12 04:46:34;;;;;;;21.93;17.83;;;;;;;12.49;100.00;93430.56;5067638;28;20192;-76
2022/10/12 04:49:00;;;;;;;21.03;18.43;;;;;;;12.49;100.00;93443.66;5066104;28;20263;-76
2022/10/12 04:51:25;;;;;;;23.07;19.63;;;;;;;12.64;100.00;93446.19;5066463;28;20178;-76
2022/10/12 04:53:51;;;;;;;22.57;18.77;;;;;;;12.61;100.00;93429.19;5066833;28;20217;-77
2022/10/12 04:56:16;;;;;;;28.03;18.67;;;;;;;12.54;100.00;93425.28;5067826;28;20219;-76
2022/10/12 04:58:42;;;;;;;21.80;19.50;;;;;;;12.65;100.00;93451.16;5066602;28;20233;-76
2022/10/12 05:01:07;;;;;;;25.87;19.50;;;;;;;12.42;100.00;93422.22;5066604;28;20220;-76
2022/10/12 05:03:33;;;;;;;21.60;18.30;;;;;;;12.44;100.00;93430.56;5065699;28;20308;-76
2022/10/12 05:05:58;;;;;;;21.30;18.43;;;;;;;12.60;100.00;93447.78;5067289;28;20205;-76
2022/10/12 05:08:24;;;;;;;21.37;19.10;;;;;;;12.68;100.00;93449.84;5067346;28;20209;-77
2022/10/12 05:10:49;;;;;;;20.97;18.57;;;;;;;12.77;100.00;93446.38;5067612;28;20197;-76
2022/10/12 05:13:15;;;;;;;21.13;19.03;;;;;;;12.63;100.00;93452.47;5067377;28;20251;-76
2022/10/12 05:15:41;;;;;;;29.63;20.00;;;;;;;12.62;100.00;93456.16;5068800;28;20185;-76
2022/10/12 05:18:07;;;;;;;21.40;18.77;;;;;;;12.58;100.00;93447.25;5065774;28;20288;-76
2022/10/12 05:20:32;;;;;;;22.30;19.33;;;;;;;12.57;100.00;93453.56;5068635;28;20185;-76
2022/10/12 05:22:58;;;;;;;20.47;18.13;;;;;;;12.55;100.00;93450.41;5067688;28;20240;-79
2022/10/12 05:25:23;;;;;;;21.93;18.27;;;;;;;12.66;100.00;93465.03;5068299;28;20193;-76
2022/10/12 05:27:49;;;;;;;24.17;20.30;;;;;;;12.74;100.00;93464.47;5067855;28;20221;-76
2022/10/12 05:30:14;;;;;;;28.30;22.67;;;;;;;12.50;100.00;93448.63;5067762;28;20224;-76
2022/10/12 05:32:40;;;;;;;25.23;22.00;;;;;;;12.57;100.00;93450.94;5067796;28;20181;-77
2022/10/12 05:35:06;;;;;;;31.53;22.27;;;;;;;12.78;100.00;93475.97;5083499;28;20190;-76
2022/10/12 05:37:32;;;;;;;35.00;24.10;;;;;;;12.66;100.00;93459.81;5068345;28;20205;-75
2022/10/12 05:39:57;;;;;;;38.20;25.93;;;;;;;12.70;100.00;93473.94;5067446;28;20221;-76
2022/10/12 05:42:23;;;;;;;40.07;24.73;;;;;;;12.78;100.00;93475.97;5068157;28;20196;-76
2022/10/12 05:44:48;;;;;;;38.07;25.33;;;;;;;12.69;100.00;93472.34;5066544;28;20225;-76
2022/10/12 05:47:14;;;;;;;37.97;27.73;;;;;;;12.72;100.00;93488.34;5068114;28;20204;-76
2022/10/12 05:49:39;;;;;;;44.37;28.73;;;;;;;12.84;100.00;93480.16;5067410;28;20221;-76
2022/10/12 05:52:04;;;;;;;43.47;27.43;;;;;;;12.78;100.00;93462.88;5068576;28;20225;-76
2022/10/12 05:54:30;;;;;;;43.00;28.40;;;;;;;12.89;100.00;93483.53;5067807;28;20237;-76
2022/10/12 05:56:56;;;;;;;42.63;27.33;;;;;;;12.91;100.00;93478.81;5068337;28;20217;-76
2022/10/12 05:59:21;;;;;;;50.47;29.37;;;;;;;12.97;100.00;93495.28;5067489;28;20246;-76
2022/10/12 06:01:48;;;;;;;41.37;28.50;;;;;;;12.86;100.00;93489.31;5067602;28;20200;-76
2022/10/12 06:04:14;;;;;;;49.33;29.77;;;;;;;12.94;100.00;93501.84;5067275;28;20245;-76
2022/10/12 06:06:39;;;;;;;47.33;29.03;;;;;;;12.78;100.00;93476.78;5067707;28;20190;-76
2022/10/12 06:09:05;;;;;;;42.67;29.17;;;;;;;12.99;100.00;93506.28;5068061;28;20232;-75
2022/10/12 06:11:30;;;;;;;40.40;26.73;;;;;;;12.95;100.00;93507.84;5067507;28;20185;-76
2022/10/12 06:13:55;;;;;;;41.07;26.50;;;;;;;13.04;100.00;93510.75;5067831;28;20225;-76
2022/10/12 06:16:21;;;;;;;39.90;26.50;;;;;;;13.07;100.00;93507.56;5068393;28;20202;-76
2022/10/12 06:18:47;;;;;;;43.40;27.47;;;;;;;12.90;100.00;93473.84;5068444;28;20225;-74
2022/10/12 06:21:12;;;;;;;45.17;25.60;;;;;;;13.09;100.00;93511.47;5070536;28;20225;-76
2022/10/12 06:23:38;;;;;;;41.33;26.83;;;;;;;12.85;100.00;93476.47;5061821;28;20225;-76
2022/10/12 06:26:03;;;;;;;36.80;26.70;;;;;;;12.96;100.00;93480.63;5050916;28;20190;-76
2022/10/12 06:28:29;;;;;;;43.87;27.77;;;;;;;13.13;100.00;93509.91;5046385;28;20241;-76
2022/10/12 06:30:56;;;;;;;41.63;28.17;;;;;;;13.14;100.00;93516.69;5045723;28;20225;-76
2022/10/12 06:33:22;;;;;;;40.30;26.70;;;;;;;13.13;100.00;93503.88;5046494;28;20253;-76
2022/10/12 06:35:47;;;;;;;40.20;26.87;;;;;;;13.07;100.00;93469.03;5050532;28;20269;-76
2022/10/12 06:38:13;;;;;;;38.27;27.23;;;;;;;13.26;100.00;93516.38;5050579;28;20229;-77
2022/10/12 06:40:38;;;;;;;44.90;28.03;;;;;;;13.30;100.00;93520.81;5044862;28;20221;-76
2022/10/12 06:43:04;;;;;;;43.20;27.37;;;;;;;13.44;100.00;93521.75;5048865;28;20249;-76
2022/10/12 06:45:29;;;;;;;43.87;28.47;;;;;;;13.33;100.00;93501.91;5069573;28;20188;-76
2022/10/12 06:47:55;;;;;;;45.47;25.60;;;;;;;13.58;100.00;93527.94;5069286;28;20233;-75
2022/10/12 06:50:21;;;;;;;35.70;26.33;;;;;;;13.50;100.00;93525.91;5070070;28;20174;-75
2022/10/12 06:52:46;;;;;;;40.47;27.20;;;;;;;13.41;100.00;93501.31;5069728;28;20243;-77
2022/10/12 06:55:12;;;;;;;40.07;26.13;;;;;;;13.70;100.00;93533.63;5070553;28;20260;-75
2022/10/12 06:57:37;;;;;;;39.77;26.77;;;;;;;13.50;100.00;93510.16;5068720;28;20293;-73
2022/10/12 07:00:05;;;;;;;41.67;26.40;;;;;;;13.80;100.00;93540.63;5070174;28;20205;-75
2022/10/12 07:02:31;;;;;;;44.30;26.93;;;;;;;13.21;100.00;93529.50;5069691;28;20220;-75
2022/10/12 07:04:56;;;;;;;36.77;25.73;;;;;;;13.62;100.00;93542.06;5070034;28;20225;-76
2022/10/12 07:07:21;;;;;;;35.10;26.67;;;;;;;13.74;100.00;93539.13;5070797;28;20190;-74
2022/10/12 07:09:47;;;;;;;36.40;26.37;;;;;;;13.82;100.00;93547.16;5070179;28;20228;-75
2022/10/12 07:12:12;;;;;;;36.50;26.33;;;;;;;13.58;100.00;93548.94;5070498;28;20244;-76
2022/10/12 07:14:37;;;;;;;46.87;26.53;;;;;;;13.44;100.00;93544.56;5069559;28;20229;-76
2022/10/12 07:17:03;;;;;;;38.33;27.50;;;;;;;13.25;100.00;93533.94;5069979;28;20200;-77
2022/10/12 07:19:28;;;;;;;42.50;27.20;;;;;;;13.51;100.00;93511.72;5069700;28;20232;-75
2022/10/12 07:21:53;;;;;;;41.90;26.33;;;;;;;13.98;100.00;93547.81;5069971;28;20251;-75
2022/10/12 07:24:19;;;;;;;40.83;27.77;;;;;;;14.04;99.23;93520.47;5054982;28;20966;-75
2022/10/12 07:26:44;;;;;;;34.20;24.50;;;;;;;14.21;97.29;93553.13;5049572;28;20200;-76
2022/10/12 07:29:09;;;;;;;41.70;28.90;;;;;;;14.09;97.59;93538.78;5060343;28;20230;-77
2022/10/12 07:31:36;;;;;;;34.87;24.67;;;;;;;14.07;97.90;93552.22;5068302;28;20217;-77
2022/10/12 07:34:01;;;;;;;33.00;23.73;;;;;;;14.17;96.93;93541.63;5068763;28;20248;-77
2022/10/12 07:36:27;;;;;;;26.83;20.97;;;;;;;13.95;95.79;93499.28;5070133;28;20224;-77
2022/10/12 07:38:52;;;;;;;35.33;23.23;;;;;;;14.00;97.28;93541.25;5069428;28;20225;-75
2022/10/12 07:41:17;;;;;;;32.97;23.90;;;;;;;13.87;98.43;93530.59;5069715;28;20201;-74
2022/10/12 07:43:43;;;;;;;37.50;26.43;;;;;;;14.21;97.53;93547.88;5069214;28;20233;-76
2022/10/12 07:46:08;;;;;;;36.00;27.00;;;;;;;14.17;97.01;93552.13;5069606;28;20189;-76
2022/10/12 07:48:34;;;;;;;31.97;24.03;;;;;;;14.03;96.99;93530.19;5068069;28;20253;-75
2022/10/12 07:51:04;;;;;;;37.97;24.70;;;;;;;14.12;96.97;93556.63;5069406;28;20186;-76
2022/10/12 07:53:29;;;;;;;34.47;24.53;;;;;;;14.14;97.95;93546.63;5067952;28;20228;-74
2022/10/12 07:56:04;;;;;;;34.13;21.73;;;;;;;14.23;94.96;93551.00;5069039;28;20201;-74
2022/10/12 07:58:29;;;;;;;28.00;21.57;;;;;;;14.03;97.14;93559.09;5067980;28;20244;-76
2022/10/12 08:00:55;;;;;;;31.23;22.20;;;;;;;14.03;97.53;93553.84;5069366;28;20200;-76
2022/10/12 08:03:21;;;;;;;29.77;21.90;;;;;;;14.07;97.03;93554.06;5068848;28;20229;-76
2022/10/12 08:05:46;;;;;;;30.27;21.33;;;;;;;14.11;96.68;93558.50;5068801;28;20259;-76
2022/10/12 08:08:13;;;;;;;30.20;22.13;;;;;;;14.09;96.72;93560.59;5068714;28;20221;-75
2022/10/12 08:10:38;;;;;;;26.77;21.17;;;;;;;14.07;97.07;93544.31;5068663;28;20209;-75
2022/10/12 08:13:03;;;;;;;34.80;21.93;;;;;;;14.17;96.27;93546.88;5068000;28;20232;-77
2022/10/12 08:15:29;;;;;;;41.97;28.13;;;;;;;14.08;97.31;93553.78;5068004;28;20230;-77
2022/10/12 08:17:54;;;;;;;33.37;24.77;;;;;;;14.23;97.64;93555.47;5066361;28;20221;-77
2022/10/12 08:20:19;;;;;;;21.07;18.73;;;;;;;14.68;93.17;93567.41;5068470;28;20189;-78
2022/10/12 08:22:45;;;;;;;26.73;19.17;;;;;;;14.62;93.27;93555.38;5068821;28;20216;-78
2022/10/12 08:25:10;;;;;;;29.77;21.13;;;;;;;14.59;94.14;93537.53;5067506;28;20213;-77
2022/10/12 08:27:37;;;;;;;23.33;18.67;;;;;;;14.77;92.18;93545.47;5067832;28;20245;-77
2022/10/12 08:30:04;;;;;;;18.87;16.27;;;;;;;14.90;89.92;93557.16;5047924;28;20185;-78
2022/10/12 08:32:31;;;;;;;19.03;17.00;;;;;;;14.76;90.31;93558.88;5047848;28;20281;-78
2022/10/12 08:34:56;;;;;;;20.53;16.70;;;;;;;14.82;90.74;93563.81;5044241;28;20215;-80
2022/10/12 08:37:21;;;;;;;22.50;18.23;;;;;;;14.76;90.70;93548.38;5041820;28;20183;-80
2022/10/12 08:39:47;;;;;;;20.23;15.87;;;;;;;14.82;90.09;93560.44;5047760;28;20252;-80
2022/10/12 08:42:33;;;;;;;19.30;17.23;;;;;;;14.86;89.63;93559.56;5048440;28;20190;-78
2022/10/12 08:45:30;;;;;;;18.13;16.27;;;;;;;14.79;89.77;93558.31;5062919;28;20211;-78
2022/10/12 08:48:08;;;;;;;20.73;16.77;;;;;;;14.67;89.79;93550.06;5047416;28;20238;-78
2022/10/12 08:50:41;;;;;;;21.87;16.60;;;;;;;14.57;90.49;93542.31;5061709;28;20205;-77
2022/10/12 08:53:25;;;;;;;19.07;17.27;;;;;;;14.52;89.59;93535.25;5046888;28;20233;-77
2022/10/12 08:55:51;;;;;;;20.00;17.90;;;;;;;14.61;89.40;93540.66;5066914;28;20197;-77
2022/10/12 08:58:22;;;;;;;18.80;16.40;;;;;;;14.79;89.25;93559.13;5066930;28;20240;-79
2022/10/12 09:01:09;;;;;;;18.70;16.73;;;;;;;14.75;88.78;93538.94;5068244;28;20201;-76
2022/10/12 09:03:59;;;;;;;18.67;16.67;;;;;;;14.94;87.57;93555.53;5058208;28;20230;-75
2022/10/12 09:06:32;;;;;;;18.37;16.43;;;;;;;14.73;88.44;93535.78;5048207;28;20201;-74
2022/10/12 09:09:04;;;;;;;17.53;15.77;;;;;;;14.85;87.87;93533.56;5048354;28;20238;-74
2022/10/12 09:11:48;;;;;;;18.30;16.40;;;;;;;15.14;87.35;93555.28;5048373;28;20194;-76
2022/10/12 09:14:22;;;;;;;18.17;16.37;;;;;;;15.21;86.88;93559.13;5059823;28;20229;-76
2022/10/12 09:16:50;;;;;;;18.17;16.20;;;;;;;15.25;86.31;93556.72;5062648;28;20190;-76
2022/10/12 09:19:20;;;;;;;18.50;16.50;;;;;;;15.29;87.22;93560.34;5066695;28;20217;-76
2022/10/12 09:21:49;;;;;;;19.20;17.20;;;;;;;15.37;85.65;93559.69;5068109;28;20261;-76
2022/10/12 09:24:20;;;;;;;18.67;16.87;;;;;;;15.30;85.98;93532.97;5052488;28;20230;-76
2022/10/12 09:26:50;;;;;;;19.33;16.60;;;;;;;15.33;86.06;93553.47;5047922;28;20190;-76
2022/10/12 09:29:28;;;;;;;24.17;20.13;;;;;;;15.70;84.83;93558.75;5043961;28;20217;-76
2022/10/12 09:32:35;;;;;;;18.70;16.83;;;;;;;15.61;84.33;93519.09;5039656;28;20186;-76
2022/10/12 09:35:03;;;;;;;17.57;15.87;;;;;;;15.74;84.04;93554.44;5044853;28;21329;-75
2022/10/12 09:37:32;;;;;;;19.77;16.80;;;;;;;15.65;83.95;93550.91;5046020;28;20198;-73
2022/10/12 09:39:58;;;;;;;17.53;15.57;;;;;;;15.91;83.32;93565.25;5056974;28;20233;-75
2022/10/12 09:42:24;;;;;;;19.73;17.60;;;;;;;15.62;83.77;93525.16;5067969;28;20272;-75
2022/10/12 09:44:56;;;;;;;18.60;16.57;;;;;;;15.96;82.82;93562.53;5067133;28;20237;-74
2022/10/12 09:47:26;;;;;;;19.70;16.97;;;;;;;15.96;83.34;93555.44;5067735;28;20189;-75
2022/10/12 09:49:58;;;;;;;21.07;17.80;;;;;;;15.98;84.04;93560.41;5067549;28;20241;-73
2022/10/12 09:52:41;;;;;;;20.03;17.87;;;;;;;15.91;84.48;93554.72;5067375;28;20182;-72
2022/10/12 09:55:17;;;;;;;27.60;18.57;;;;;;;15.97;85.11;93559.63;5070952;28;20241;-79
2022/10/12 09:58:01;;;;;;;24.37;19.43;;;;;;;16.10;83.87;93542.28;5070916;28;20196;-77
2022/10/12 10:00:32;;;;;;;21.60;17.77;;;;;;;15.98;83.47;93516.38;5071690;28;20249;-77
2022/10/12 10:02:59;;;;;;;20.03;17.07;;;;;;;16.38;83.26;93558.94;5067035;28;21548;-78
2022/10/12 10:05:31;;;;;;;22.23;15.93;;;;;;;16.62;81.58;93555.13;5043258;28;20197;-78
2022/10/12 10:08:20;;;;;;;19.80;16.67;;;;;;;16.43;82.17;93551.72;5044619;28;20316;-78
2022/10/12 10:10:54;;;;;;;17.77;16.07;;;;;;;16.29;81.76;93550.94;5067553;28;20202;-79
2022/10/12 10:13:21;;;;;;;18.30;16.50;;;;;;;16.24;82.68;93548.38;5050234;28;20249;-76
2022/10/12 10:15:50;;;;;;;19.93;17.70;;;;;;;16.29;81.26;93540.38;5050920;28;20213;-78
2022/10/12 10:18:39;;;;;;;19.57;16.00;;;;;;;16.31;82.16;93546.13;5051515;28;20237;-78
2022/10/12 10:21:10;;;;;;;17.37;15.60;;;;;;;16.18;82.75;93539.00;5051620;28;20201;-76
2022/10/12 10:23:51;;;;;;;18.27;15.43;;;;;;;16.29;81.87;93537.75;5050649;28;20257;-76
2022/10/12 10:26:19;;;;;;;16.67;15.07;;;;;;;16.32;80.94;93526.63;5051186;28;20265;-76
2022/10/12 10:28:47;;;;;;;16.23;14.50;;;;;;;16.40;79.62;93525.97;5051078;28;20245;-75
2022/10/12 10:31:12;;;;;;;16.20;14.70;;;;;;;16.30;80.82;93527.97;5050261;28;20197;-77
2022/10/12 10:33:39;;;;;;;17.03;15.30;;;;;;;16.33;80.32;93530.81;5050251;28;20225;-76
2022/10/12 10:36:10;;;;;;;17.87;14.83;;;;;;;16.44;81.15;93526.13;5066448;28;20186;-76
2022/10/12 10:39:06;;;;;;;21.70;16.87;;;;;;;16.74;78.93;93518.47;5050281;28;20226;-74
2022/10/12 10:41:37;;;;;;;17.10;15.57;;;;;;;16.67;78.51;93506.78;5029392;28;20248;-76
2022/10/12 10:44:05;;;;;;;19.23;15.70;;;;;;;16.73;79.19;93509.00;5058982;28;20229;-77
2022/10/12 10:46:34;;;;;;;17.27;15.57;;;;;;;16.69;80.88;93513.31;5068165;28;20197;-76
2022/10/12 10:49:07;;;;;;;17.87;16.07;;;;;;;16.71;80.60;93502.47;5067660;28;20228;-76
2022/10/12 10:51:45;;;;;;;16.23;14.80;;;;;;;16.97;79.08;93506.94;5068579;28;20186;-77
2022/10/12 10:54:26;;;;;;;15.97;14.47;;;;;;;16.86;78.11;93487.09;5067547;28;20225;-76
2022/10/12 10:57:09;;;;;;;15.83;14.43;;;;;;;16.57;79.54;93499.84;5068620;28;20209;-75
2022/10/12 10:59:55;;;;;;;15.90;14.37;;;;;;;16.80;78.59;93498.06;5049130;28;20260;-75
2022/10/12 11:02:32;;;;;;;16.07;14.70;;;;;;;16.92;77.10;93500.97;5046624;28;20184;-76
2022/10/12 11:05:04;;;;;;;17.50;16.00;;;;;;;16.85;78.43;93506.66;5038369;28;20261;-76
2022/10/12 11:07:40;;;;;;;15.10;13.77;;;;;;;16.97;77.33;93500.88;5041484;28;20277;-76
2022/10/12 11:10:19;;;;;;;14.60;13.30;;;;;;;16.87;76.99;93498.44;5046771;28;20225;-75
2022/10/12 11:12:49;;;;;;;17.20;14.90;;;;;;;16.99;77.53;93483.69;5044480;28;20177;-76
2022/10/12 11:15:28;;;;;;;15.23;13.87;;;;;;;16.97;76.81;93496.38;5046682;28;20961;-75
2022/10/12 11:18:06;;;;;;;16.23;14.53;;;;;;;16.86;78.27;93495.03;5044894;28;20237;-73
2022/10/12 11:20:54;;;;;;;15.43;13.93;;;;;;;16.96;77.09;93492.19;5040464;28;20205;-73